Pagina principale
METAR-TAF:

METAR-TAF

Aeroporti :

Frosinone, Italia

latitudine: 41-38N, longitudine: 013-18E, altezza: 180 m

Osservazione

Il bollettino è stato emesso 34 minuti fa, alle 09:55 UTC
Vento 2 kt da ovest/sud-ovest
Temperature 19°C
Umidità 43%
Pressione 1019 hPa
Visibilità 10 km o più
Poco nuvoloso ad un'altezza di 3500 ft

METAR: LIRH 210955Z 24002KT 9999 FEW035 19/06 Q1019 RMK FEW MON LIB NC VIS MIN 9999 WIND THR16 /////KT BLU

Ora: 12:29 (10:29 UTC)

Previsione

Il bollettino è stato emesso 2 ore e 29 minuti fa, alle 08:00 UTC
Previsione valida dal 21 alle 09 UTC al 21 alle 18 UTC
Vento 3 kt da direzioni variabili
Visibilità 10 km o più
nessuna nube inferiore a 1500 m e nessun cumulonembo
Temporaneamente
dal 21 alle 13 UTC al 21 alle 16 UTC
Vento 9 kt da ovest/sud-ovest
Visibilità 10 km o più
Nubi sparse ad un'altezza di 3000 ft

TAF: LIRH 210800Z 2109/2118 VRB03KT CAVOK TEMPO 2113/2116 25009KT 9999 SCT030

Osservazioni e previsioni meteorologiche di più di 4000 aeroporti (messaggi METAR e TAF).

Le stazioni disponibili sono rappresentate dai dischi gialli e rossi sulla carta.

Puntare il mouse per vedere il nome della stazione.

Clicca sopra per visualizzare le osservazioni e previsioni meteorologiche.

Per cambiare la mappa : fare clic sui pulsanti verdi con una croce nera per ingrandire, il pulsante verde con un trattino per diminuire, o sulla freccia verde per le mappe adiacenti.


METAR-TAF: